createdAt,value
2022-09-15T00:01:05.306Z,4.20
2022-09-15T00:03:32.430Z,5.57
2022-09-15T00:05:59.546Z,5.20
2022-09-15T00:08:26.709Z,6.22
2022-09-15T00:10:55.562Z,6.40
2022-09-15T00:13:23.394Z,4.60
2022-09-15T00:15:50.460Z,5.88
2022-09-15T00:18:17.668Z,5.78
2022-09-15T00:20:45.230Z,6.57
2022-09-15T00:23:13.178Z,5.90
2022-09-15T00:25:47.906Z,4.63
2022-09-15T00:28:15.822Z,5.80
2022-09-15T00:30:47.259Z,6.22
2022-09-15T00:33:15.110Z,5.90
2022-09-15T00:35:44.313Z,6.07
2022-09-15T00:38:12.171Z,8.68
2022-09-15T00:40:45.422Z,5.88
2022-09-15T00:43:12.914Z,6.13
2022-09-15T00:45:40.235Z,6.97
2022-09-15T00:48:08.707Z,6.47
2022-09-15T00:50:36.502Z,5.05
2022-09-15T00:53:06.822Z,9.27
2022-09-15T00:55:39.759Z,6.07
2022-09-15T00:58:08.979Z,6.97
2022-09-15T01:00:36.771Z,8.48
2022-09-15T01:03:04.468Z,5.05
2022-09-15T01:05:34.283Z,11.60
2022-09-15T01:08:07.189Z,6.90
2022-09-15T01:10:35.635Z,5.75
2022-09-15T01:13:04.478Z,8.70
2022-09-15T01:15:51.809Z,7.60
2022-09-15T01:18:24.234Z,10.20
2022-09-15T01:20:54.119Z,9.48
2022-09-15T01:23:27.338Z,9.98
2022-09-15T01:26:00.644Z,5.05
2022-09-15T01:28:40.073Z,7.85
2022-09-15T01:31:25.321Z,5.13
2022-09-15T01:34:06.566Z,6.25
2022-09-15T01:36:42.801Z,7.13
2022-09-15T01:39:26.586Z,5.53
2022-09-15T01:41:58.590Z,5.15
2022-09-15T01:44:27.354Z,9.15
2022-09-15T01:46:57.054Z,7.70
2022-09-15T01:49:26.703Z,5.38
2022-09-15T01:51:54.500Z,6.10
2022-09-15T01:54:27.108Z,9.07
2022-09-15T01:56:54.222Z,2.92
2022-09-15T01:59:21.425Z,3.45
2022-09-15T02:02:10.630Z,3.95
2022-09-15T02:04:40.583Z,4.57
2022-09-15T02:07:22.887Z,3.05
2022-09-15T02:09:59.208Z,4.00
2022-09-15T02:12:33.857Z,6.53
2022-09-15T02:15:03.453Z,4.45
2022-09-15T02:17:32.621Z,5.50
2022-09-15T02:20:20.159Z,4.45
2022-09-15T02:22:50.366Z,3.95
2022-09-15T02:25:19.654Z,3.10
2022-09-15T02:27:49.059Z,5.18
2022-09-15T02:30:17.545Z,3.58
2022-09-15T02:32:54.366Z,4.78
2022-09-15T02:35:21.877Z,6.45
2022-09-15T02:37:49.498Z,3.97
2022-09-15T02:40:16.697Z,4.70
2022-09-15T02:42:52.345Z,2.42
2022-09-15T02:45:20.260Z,3.53
2022-09-15T02:47:47.378Z,4.45
2022-09-15T02:50:14.471Z,4.40
2022-09-15T02:52:41.632Z,4.82
2022-09-15T02:55:08.979Z,7.20
2022-09-15T02:57:36.058Z,1.70
2022-09-15T03:00:13.175Z,3.33
2022-09-15T03:02:41.209Z,4.07
2022-09-15T03:05:08.908Z,3.10
2022-09-15T03:07:38.083Z,4.20
2022-09-15T03:10:06.145Z,5.53
2022-09-15T03:12:37.789Z,4.40
2022-09-15T03:15:05.047Z,4.93
2022-09-15T03:17:34.667Z,2.85
2022-09-15T03:20:02.261Z,3.83
2022-09-15T03:22:29.354Z,4.68
2022-09-15T03:24:56.541Z,5.13
2022-09-15T03:27:23.751Z,6.22
2022-09-15T03:29:51.072Z,3.53
2022-09-15T03:32:18.160Z,2.40
2022-09-15T03:34:45.354Z,4.13
2022-09-15T03:37:12.452Z,5.95
2022-09-15T03:39:39.523Z,2.40
2022-09-15T03:42:06.673Z,2.05
2022-09-15T03:44:33.799Z,4.90
2022-09-15T03:47:00.901Z,2.80
2022-09-15T03:49:28.016Z,3.55
2022-09-15T03:51:55.058Z,3.58
2022-09-15T03:54:22.158Z,2.58
2022-09-15T03:56:50.211Z,4.72
2022-09-15T03:59:18.881Z,4.50
2022-09-15T04:01:46.676Z,3.65
2022-09-15T04:04:13.871Z,4.10
2022-09-15T04:06:41.277Z,1.52
2022-09-15T04:09:08.703Z,3.03
2022-09-15T04:11:35.967Z,4.47
2022-09-15T04:14:03.071Z,2.45
2022-09-15T04:16:30.286Z,1.88
2022-09-15T04:18:57.924Z,3.58
2022-09-15T04:21:26.122Z,1.63
2022-09-15T04:23:54.065Z,3.83
2022-09-15T04:26:26.786Z,3.90
2022-09-15T04:31:21.014Z,4.78
2022-09-15T04:33:48.367Z,2.13
2022-09-15T04:36:17.122Z,2.88
2022-09-15T04:38:44.621Z,5.28
2022-09-15T04:41:12.310Z,5.22
2022-09-15T04:43:39.402Z,6.53
2022-09-15T04:46:06.939Z,6.60
2022-09-15T04:48:34.153Z,3.33
2022-09-15T04:51:02.339Z,2.13
2022-09-15T04:53:30.015Z,2.78
2022-09-15T04:56:07.778Z,3.20
2022-09-15T04:58:42.282Z,2.75
2022-09-15T05:01:29.663Z,4.00
2022-09-15T05:03:56.828Z,1.58
2022-09-15T05:06:26.940Z,2.80
2022-09-15T05:08:55.303Z,2.90
2022-09-15T05:11:22.475Z,4.35
2022-09-15T05:13:49.578Z,3.20
2022-09-15T05:16:18.299Z,2.17
2022-09-15T05:18:46.441Z,4.53
2022-09-15T05:21:14.712Z,5.43
2022-09-15T05:23:41.934Z,4.40
2022-09-15T05:26:11.760Z,3.47
2022-09-15T05:28:39.401Z,2.97
2022-09-15T05:31:13.876Z,3.08
2022-09-15T05:33:41.249Z,3.67
2022-09-15T05:36:08.493Z,2.28
2022-09-15T05:38:35.835Z,2.13
2022-09-15T05:41:07.244Z,4.22
2022-09-15T05:43:35.366Z,3.22
2022-09-15T05:46:02.865Z,2.20
2022-09-15T05:48:30.202Z,6.32
2022-09-15T05:50:58.172Z,2.25
2022-09-15T05:53:25.853Z,2.65
2022-09-15T05:55:56.773Z,5.00
2022-09-15T05:58:23.831Z,4.40
2022-09-15T06:00:50.953Z,3.10
2022-09-15T06:03:18.358Z,2.13
2022-09-15T06:05:45.506Z,3.28
2022-09-15T06:08:12.761Z,3.80
2022-09-15T06:10:40.225Z,6.43
2022-09-15T06:13:07.405Z,2.63
2022-09-15T06:15:34.807Z,4.05
2022-09-15T06:18:01.874Z,3.88
2022-09-15T06:20:28.918Z,2.70
2022-09-15T06:22:56.689Z,2.65
2022-09-15T06:25:23.775Z,2.70
2022-09-15T06:27:50.927Z,3.88
2022-09-15T06:30:18.033Z,3.92
2022-09-15T06:32:48.110Z,1.95
2022-09-15T06:35:15.726Z,1.88
2022-09-15T06:37:42.822Z,2.70
2022-09-15T06:40:10.287Z,3.20
2022-09-15T06:42:37.546Z,3.40
2022-09-15T06:45:04.774Z,3.67
2022-09-15T06:47:33.988Z,3.10
2022-09-15T06:50:01.662Z,2.47
2022-09-15T06:52:28.962Z,2.22
2022-09-15T06:54:56.120Z,1.58
2022-09-15T06:57:23.268Z,2.90
2022-09-15T06:59:50.352Z,2.85
2022-09-15T07:02:17.541Z,3.63
2022-09-15T07:04:44.743Z,2.53
2022-09-15T07:07:11.859Z,7.40
2022-09-15T07:09:41.149Z,5.15
2022-09-15T07:12:08.710Z,4.22
2022-09-15T07:14:35.761Z,1.95
2022-09-15T07:17:02.897Z,4.88
2022-09-15T07:19:30.014Z,3.13
2022-09-15T07:21:57.096Z,2.13
2022-09-15T07:24:24.147Z,2.75
2022-09-15T07:26:52.058Z,3.67
2022-09-15T07:29:19.121Z,4.03
2022-09-15T07:31:46.201Z,3.80
2022-09-15T07:34:13.334Z,5.25
2022-09-15T07:36:40.420Z,3.72
2022-09-15T07:39:07.504Z,2.28
2022-09-15T07:41:34.702Z,6.07
2022-09-15T07:44:02.213Z,2.85
2022-09-15T07:46:31.821Z,2.40
2022-09-15T07:49:00.543Z,2.08
2022-09-15T07:51:27.646Z,3.88
2022-09-15T07:53:55.060Z,1.95
2022-09-15T07:56:22.259Z,1.52
2022-09-15T07:58:49.781Z,2.33
2022-09-15T08:01:18.231Z,1.55
2022-09-15T08:03:48.439Z,1.70
2022-09-15T08:06:16.458Z,1.70
2022-09-15T08:08:47.062Z,2.97
2022-09-15T08:11:18.868Z,2.03
2022-09-15T08:13:47.272Z,2.08
2022-09-15T08:16:15.477Z,2.42
2022-09-15T08:18:43.512Z,3.65
2022-09-15T08:21:11.985Z,3.15
2022-09-15T08:23:39.230Z,3.50
2022-09-15T08:26:10.654Z,3.10
2022-09-15T08:28:40.301Z,4.50
2022-09-15T08:31:08.486Z,4.15
2022-09-15T08:33:35.654Z,2.38
2022-09-15T08:36:04.904Z,2.45
2022-09-15T08:38:32.315Z,3.20
2022-09-15T08:41:01.162Z,2.20
2022-09-15T08:43:30.464Z,2.25
2022-09-15T08:46:03.530Z,1.95
2022-09-15T08:48:35.271Z,1.80
2022-09-15T08:51:05.939Z,2.95
2022-09-15T08:53:36.270Z,2.50
2022-09-15T08:56:09.895Z,3.28
2022-09-15T08:58:37.873Z,2.88
2022-09-15T09:01:11.259Z,1.63
2022-09-15T09:03:41.450Z,2.42
2022-09-15T09:06:18.830Z,1.75
2022-09-15T09:09:00.172Z,1.55
2022-09-15T09:11:39.350Z,3.10
2022-09-15T09:14:18.522Z,1.50
2022-09-15T09:16:54.527Z,2.90
2022-09-15T09:19:22.311Z,2.88
2022-09-15T09:21:54.310Z,1.77
2022-09-15T09:24:35.890Z,3.05
2022-09-15T09:27:03.698Z,4.35
2022-09-15T09:29:33.717Z,4.22
2022-09-15T09:32:01.971Z,3.80
2022-09-15T09:34:44.039Z,2.70
2022-09-15T09:37:12.510Z,3.60
2022-09-15T09:39:39.867Z,3.67
2022-09-15T09:42:08.927Z,2.75
2022-09-15T09:44:37.398Z,2.97
2022-09-15T09:47:04.558Z,2.95
2022-09-15T09:49:34.500Z,5.85
2022-09-15T09:52:03.525Z,4.97
2022-09-15T09:54:32.624Z,7.60
2022-09-15T09:57:15.388Z,3.78
2022-09-15T09:59:47.206Z,6.85
2022-09-15T10:02:15.638Z,5.30
2022-09-15T10:04:44.399Z,4.15
2022-09-15T10:07:11.879Z,5.35
2022-09-15T10:09:39.618Z,6.78
2022-09-15T10:12:07.521Z,3.47
2022-09-15T10:14:39.351Z,3.53
2022-09-15T10:17:09.358Z,5.65
2022-09-15T10:19:45.378Z,4.32
2022-09-15T10:22:30.937Z,5.65
2022-09-15T10:24:58.944Z,3.20
2022-09-15T10:27:26.046Z,2.22
2022-09-15T10:29:53.209Z,1.48
2022-09-15T10:32:25.439Z,1.65
2022-09-15T10:35:02.898Z,3.13
2022-09-15T10:37:38.848Z,0.98
2022-09-15T10:40:26.308Z,1.10
2022-09-15T10:42:58.982Z,0.80
2022-09-15T10:45:26.256Z,0.85
2022-09-15T10:48:12.024Z,0.60
2022-09-15T10:50:42.206Z,1.50
2022-09-15T10:53:15.110Z,3.95
2022-09-15T10:55:54.869Z,2.20
2022-09-15T10:58:21.943Z,0.45
2022-09-15T11:01:15.253Z,0.50
2022-09-15T11:03:50.050Z,0.63
2022-09-15T11:06:34.963Z,0.50
2022-09-15T11:09:11.455Z,0.50
2022-09-15T11:11:57.202Z,0.47
2022-09-15T11:14:24.272Z,0.20
2022-09-15T11:17:09.980Z,0.77
2022-09-15T11:19:55.603Z,0.30
2022-09-15T11:22:29.089Z,0.85
2022-09-15T11:25:03.691Z,2.92
2022-09-15T11:27:34.083Z,1.38
2022-09-15T11:30:21.642Z,1.63
2022-09-15T11:32:54.263Z,1.50
2022-09-15T11:35:34.669Z,1.83
2022-09-15T11:38:20.321Z,3.47
2022-09-15T11:40:57.436Z,1.67
2022-09-15T11:43:30.687Z,3.70
2022-09-15T11:45:58.695Z,3.17
2022-09-15T11:48:37.122Z,4.00
2022-09-15T11:51:07.403Z,3.05
2022-09-15T11:53:38.834Z,6.20
2022-09-15T11:56:12.124Z,3.25
2022-09-15T11:58:42.003Z,3.70
2022-09-15T12:01:11.854Z,5.82
2022-09-15T12:03:38.893Z,3.40
2022-09-15T12:06:18.077Z,3.40
2022-09-15T12:08:50.769Z,4.47
2022-09-15T12:13:45.642Z,4.57
2022-09-15T12:16:13.144Z,5.43
2022-09-15T12:18:46.937Z,3.42
2022-09-15T12:21:17.144Z,6.15
2022-09-15T12:23:47.586Z,4.57
2022-09-15T12:26:18.552Z,6.97
2022-09-15T12:28:50.942Z,4.32
2022-09-15T12:31:18.058Z,5.50
2022-09-15T12:33:55.680Z,5.30
2022-09-15T12:36:36.916Z,5.80
2022-09-15T12:39:06.791Z,2.90
2022-09-15T12:41:34.078Z,5.55
2022-09-15T12:44:16.962Z,4.93
2022-09-15T12:46:51.532Z,3.88
2022-09-15T12:49:20.689Z,5.97
2022-09-15T12:51:51.023Z,5.75
2022-09-15T12:54:22.651Z,5.55
2022-09-15T12:56:54.073Z,4.63
2022-09-15T12:59:25.259Z,7.28
2022-09-15T13:01:53.535Z,5.55
2022-09-15T13:04:44.090Z,6.05
2022-09-15T13:07:18.430Z,5.35
2022-09-15T13:09:46.902Z,5.45
2022-09-15T13:12:16.556Z,5.22
2022-09-15T13:14:50.035Z,5.72
2022-09-15T13:17:19.334Z,5.45
2022-09-15T13:19:47.896Z,5.90
2022-09-15T13:22:30.031Z,6.65
2022-09-15T13:25:02.533Z,4.97
2022-09-15T13:27:29.609Z,9.57
2022-09-15T13:30:19.971Z,4.82
2022-09-15T13:32:50.505Z,5.40
2022-09-15T13:35:32.973Z,6.13
2022-09-15T13:38:21.222Z,5.60
2022-09-15T13:41:08.926Z,7.03
2022-09-15T13:43:41.210Z,9.50
2022-09-15T13:46:14.575Z,8.20
2022-09-15T13:48:41.953Z,8.10
2022-09-15T13:51:19.694Z,9.30
2022-09-15T13:53:52.287Z,6.15
2022-09-15T13:56:27.879Z,8.00
2022-09-15T13:59:03.263Z,6.93
2022-09-15T14:01:36.270Z,7.32
2022-09-15T14:04:10.176Z,5.32
2022-09-15T14:06:42.054Z,8.75
2022-09-15T14:09:29.392Z,6.67
2022-09-15T14:11:58.246Z,7.70
2022-09-15T14:14:28.575Z,8.68
2022-09-15T14:16:57.000Z,6.03
2022-09-15T14:19:28.944Z,9.98
2022-09-15T14:21:58.484Z,6.47
2022-09-15T14:24:30.571Z,8.43
2022-09-15T14:27:03.314Z,10.02
2022-09-15T14:32:00.679Z,6.15
2022-09-15T14:34:30.028Z,8.70
2022-09-15T14:37:07.051Z,7.22
2022-09-15T14:39:37.281Z,8.77
2022-09-15T14:42:22.640Z,6.10
2022-09-15T14:47:38.910Z,9.18
2022-09-15T14:50:07.891Z,7.93
2022-09-15T14:52:38.314Z,10.20
2022-09-15T14:55:07.686Z,7.68
2022-09-15T14:57:36.714Z,9.05
2022-09-15T15:00:07.793Z,4.93
2022-09-15T15:02:54.782Z,6.95
2022-09-15T15:05:26.905Z,6.13
2022-09-15T15:07:55.510Z,7.78
2022-09-15T15:10:25.175Z,7.97
2022-09-15T15:13:01.637Z,7.05
2022-09-15T15:15:29.107Z,6.15
2022-09-15T15:17:56.319Z,5.15
2022-09-15T15:20:27.903Z,7.95
2022-09-15T15:23:13.887Z,7.57
2022-09-15T15:25:41.722Z,6.60
2022-09-15T15:28:28.765Z,6.88
2022-09-15T15:31:05.907Z,8.07
2022-09-15T15:33:33.057Z,3.67
2022-09-15T15:36:10.138Z,4.40
2022-09-15T15:38:44.896Z,8.40
2022-09-15T15:41:21.927Z,5.07
2022-09-15T15:43:56.093Z,5.20
2022-09-15T15:46:42.034Z,3.75
2022-09-15T15:49:15.853Z,4.93
2022-09-15T15:51:43.868Z,4.78
2022-09-15T15:54:11.048Z,5.53
2022-09-15T15:56:38.218Z,6.75
2022-09-15T15:59:05.768Z,4.50
2022-09-15T16:01:33.250Z,5.13
2022-09-15T16:04:00.429Z,5.28
2022-09-15T16:06:27.738Z,6.03
2022-09-15T16:08:58.277Z,8.13
2022-09-15T16:11:25.488Z,7.93
2022-09-15T16:13:52.820Z,7.65
2022-09-15T16:16:21.321Z,6.28
2022-09-15T16:18:48.984Z,8.15
2022-09-15T16:21:32.225Z,6.97
2022-09-15T16:23:59.369Z,4.78
2022-09-15T16:26:26.576Z,6.70
2022-09-15T16:28:53.989Z,6.28
2022-09-15T16:31:21.261Z,6.65
2022-09-15T16:33:48.389Z,6.57
2022-09-15T16:36:16.606Z,6.70
2022-09-15T16:38:44.258Z,8.70
2022-09-15T16:41:13.646Z,12.00
2022-09-15T16:43:40.725Z,6.15
2022-09-15T16:46:09.405Z,8.40
2022-09-15T16:48:36.537Z,6.65
2022-09-15T16:51:23.430Z,6.78
2022-09-15T16:53:52.060Z,9.88
2022-09-15T16:56:19.212Z,9.10
2022-09-15T16:58:46.337Z,9.13
2022-09-15T17:01:18.070Z,6.75
2022-09-15T17:03:45.234Z,10.23
2022-09-15T17:06:17.598Z,10.20
2022-09-15T17:08:44.772Z,8.48
2022-09-15T17:11:16.254Z,8.77
2022-09-15T17:13:43.923Z,9.45
2022-09-15T17:16:11.896Z,9.60
2022-09-15T17:18:38.989Z,7.57
2022-09-15T17:21:07.425Z,7.03
2022-09-15T17:23:38.402Z,9.93
2022-09-15T17:26:07.054Z,9.65
2022-09-15T17:28:36.500Z,7.60
2022-09-15T17:31:05.317Z,7.68
2022-09-15T17:33:33.022Z,8.93
2022-09-15T17:36:00.260Z,8.48
2022-09-15T17:38:27.821Z,7.20
2022-09-15T17:40:55.446Z,10.63
2022-09-15T17:43:24.353Z,7.82
2022-09-15T17:45:51.714Z,8.82
2022-09-15T17:48:19.151Z,8.23
2022-09-15T17:50:48.570Z,9.88
2022-09-15T17:53:21.331Z,10.45
2022-09-15T17:58:15.530Z,8.88
2022-09-15T18:00:43.163Z,12.18
2022-09-15T18:03:19.678Z,12.50
2022-09-15T18:05:46.937Z,7.93
2022-09-15T18:08:14.125Z,9.88
2022-09-15T18:10:41.216Z,10.65
2022-09-15T18:13:08.294Z,9.38
2022-09-15T18:15:35.885Z,10.30
2022-09-15T18:18:08.433Z,13.40
2022-09-15T18:20:36.816Z,8.55
2022-09-15T18:23:03.931Z,9.52
2022-09-15T18:25:35.098Z,11.90
2022-09-15T18:28:02.623Z,11.20
2022-09-15T18:30:33.636Z,11.27
2022-09-15T18:33:00.766Z,12.20
2022-09-15T18:35:28.001Z,12.13
2022-09-15T18:37:56.869Z,11.93
2022-09-15T18:40:24.262Z,13.05
2022-09-15T18:42:51.425Z,11.13
2022-09-15T18:45:19.046Z,11.00
2022-09-15T18:47:50.326Z,12.48
2022-09-15T18:50:18.140Z,12.73
2022-09-15T18:52:45.626Z,14.60
2022-09-15T18:55:17.958Z,14.50
2022-09-15T18:57:45.381Z,11.45
2022-09-15T19:00:14.526Z,11.25
2022-09-15T19:02:41.800Z,12.15
2022-09-15T19:05:11.477Z,12.07
2022-09-15T19:07:39.302Z,12.20
2022-09-15T19:10:07.088Z,14.45
2022-09-15T19:12:35.588Z,16.17
2022-09-15T19:15:02.998Z,16.13
2022-09-15T19:17:30.127Z,14.63
2022-09-15T19:19:57.318Z,15.57
2022-09-15T19:22:24.474Z,16.23
2022-09-15T19:24:51.690Z,15.75
2022-09-15T19:27:19.151Z,14.38
2022-09-15T19:29:46.848Z,17.85
2022-09-15T19:32:14.470Z,15.20
2022-09-15T19:34:44.746Z,16.40
2022-09-15T19:37:17.831Z,18.23
2022-09-15T19:39:45.813Z,13.73
2022-09-15T19:42:13.085Z,13.32
2022-09-15T19:44:41.339Z,15.48
2022-09-15T19:47:08.587Z,13.95
2022-09-15T19:49:35.754Z,16.77
2022-09-15T19:52:02.911Z,14.57
2022-09-15T19:54:30.573Z,16.10
2022-09-15T19:56:57.775Z,20.35
2022-09-15T19:59:30.220Z,16.10
2022-09-15T20:01:58.360Z,15.50
2022-09-15T20:04:25.554Z,12.82
2022-09-15T20:06:52.753Z,17.08
2022-09-15T20:09:19.863Z,13.50
2022-09-15T20:11:47.089Z,12.38
2022-09-15T20:14:14.744Z,13.82
2022-09-15T20:16:41.949Z,15.80
2022-09-15T20:19:09.302Z,13.30
2022-09-15T20:21:53.012Z,14.10
2022-09-15T20:24:20.583Z,12.55
2022-09-15T20:26:47.814Z,12.25
2022-09-15T20:29:15.227Z,12.60
2022-09-15T20:31:42.571Z,14.15
2022-09-15T20:34:09.643Z,11.00
2022-09-15T20:36:38.724Z,12.43
2022-09-15T20:39:09.249Z,12.45
2022-09-15T20:41:36.924Z,14.57
2022-09-15T20:44:05.921Z,13.10
2022-09-15T20:46:33.482Z,13.75
2022-09-15T20:49:01.418Z,13.18
2022-09-15T20:51:31.573Z,14.75
2022-09-15T20:53:59.347Z,16.33
2022-09-15T20:56:27.317Z,14.35
2022-09-15T20:58:55.382Z,14.98
2022-09-15T21:01:23.850Z,15.18
2022-09-15T21:03:51.565Z,12.57
2022-09-15T21:06:19.942Z,16.25
2022-09-15T21:08:47.610Z,13.32
2022-09-15T21:11:15.820Z,12.25
2022-09-15T21:13:43.486Z,13.35
2022-09-15T21:16:12.107Z,14.80
2022-09-15T21:18:40.568Z,13.80
2022-09-15T21:21:08.834Z,13.88
2022-09-15T21:23:36.071Z,12.38
2022-09-15T21:26:07.415Z,10.98
2022-09-15T21:28:35.408Z,9.75
2022-09-15T21:31:10.149Z,10.15
2022-09-15T21:33:38.602Z,15.02
2022-09-15T21:36:10.187Z,11.55
2022-09-15T21:38:37.996Z,12.23
2022-09-15T21:41:06.157Z,12.60
2022-09-15T21:43:37.234Z,11.10
2022-09-15T21:46:05.310Z,9.68
2022-09-15T21:48:33.347Z,10.75
2022-09-15T21:51:00.671Z,11.50
2022-09-15T21:53:28.067Z,15.10
2022-09-15T21:55:56.561Z,10.85
2022-09-15T21:58:26.157Z,10.50
2022-09-15T22:00:53.814Z,11.35
2022-09-15T22:03:21.005Z,9.32
2022-09-15T22:05:48.520Z,11.80
2022-09-15T22:08:16.613Z,9.80
2022-09-15T22:10:44.320Z,10.10
2022-09-15T22:13:12.125Z,12.80
2022-09-15T22:15:39.566Z,10.07
2022-09-15T22:18:07.482Z,11.02
2022-09-15T22:20:34.878Z,11.27
2022-09-15T22:23:02.220Z,9.43
2022-09-15T22:25:29.434Z,11.75
2022-09-15T22:27:56.570Z,11.10
2022-09-15T22:30:23.719Z,13.80
2022-09-15T22:32:50.818Z,13.18
2022-09-15T22:35:17.922Z,10.82
2022-09-15T22:37:45.076Z,10.55
2022-09-15T22:40:12.262Z,10.50
2022-09-15T22:42:39.471Z,11.07
2022-09-15T22:45:07.380Z,10.65
2022-09-15T22:47:34.480Z,9.73
2022-09-15T22:50:01.718Z,11.80
2022-09-15T22:52:28.875Z,9.77
2022-09-15T22:54:56.001Z,11.18
2022-09-15T22:57:23.095Z,9.77
2022-09-15T22:59:50.202Z,11.63
2022-09-15T23:02:17.367Z,9.45
2022-09-15T23:04:44.509Z,10.25
2022-09-15T23:07:11.723Z,12.48
2022-09-15T23:09:38.852Z,11.50
2022-09-15T23:12:07.892Z,13.20
2022-09-15T23:14:34.995Z,13.88
2022-09-15T23:17:02.095Z,14.48
2022-09-15T23:19:29.318Z,11.77
2022-09-15T23:21:56.437Z,10.98
2022-09-15T23:24:23.917Z,10.20
2022-09-15T23:26:51.056Z,9.40
2022-09-15T23:29:18.780Z,13.77
2022-09-15T23:31:45.936Z,10.23
2022-09-15T23:34:13.124Z,9.25
2022-09-15T23:36:40.345Z,8.75
2022-09-15T23:39:07.500Z,10.65
2022-09-15T23:41:34.642Z,11.65
2022-09-15T23:44:01.904Z,10.93
2022-09-15T23:46:29.035Z,10.43
2022-09-15T23:48:56.207Z,9.65
2022-09-15T23:51:23.288Z,9.88
2022-09-15T23:53:50.455Z,10.65
2022-09-15T23:56:17.515Z,11.43
2022-09-15T23:58:44.641Z,10.02
